Time;durP1;ratioP1;P1;durP2;ratioP2;P2;SDS_P1;SDS_P2;PMS_P1;PMS_P2;Temp;Humidity;BMP_temperature;BMP_pressure;BME280_temperature;BME280_humidity;BME280_pressure;Samples;Min_cycle;Max_cycle;Signal;HPM_P1;HPM_P2
2022/11/22 00:03:28;;;;;;;15.73;4.03;;;;;;;9.57;100.00;100464.06;10254104;28;96829;-84
2022/11/22 00:08:32;;;;;;;15.90;4.05;;;;;;;9.46;100.00;100456.50;10254443;28;96816;-84
2022/11/22 00:13:35;;;;;;;16.10;5.07;;;;;;;9.42;100.00;100465.31;10254036;28;96837;-84
2022/11/22 00:18:40;;;;;;;16.13;5.22;;;;;;;9.42;100.00;100472.25;10254189;28;97180;-84
2022/11/22 00:23:43;;;;;;;14.95;4.68;;;;;;;9.37;100.00;100485.41;10253934;28;96671;-84
2022/11/22 00:28:46;;;;;;;14.65;4.13;;;;;;;9.35;100.00;100479.38;10250790;28;96744;-84
2022/11/22 00:33:51;;;;;;;13.27;4.47;;;;;;;9.38;100.00;100474.06;10253716;28;96699;-84
2022/11/22 00:38:56;;;;;;;;;;;;;;;9.37;100.00;100450.66;10253842;28;96619;-84
2022/11/22 00:43:59;;;;;;;12.88;4.82;;;;;;;9.32;100.00;100437.69;10245709;28;96835;-84
2022/11/22 00:49:04;;;;;;;12.82;4.20;;;;;;;9.33;100.00;100434.16;10212404;28;96789;-84
2022/11/22 00:54:07;;;;;;;18.38;3.80;;;;;;;9.37;100.00;100424.53;10229015;28;96823;-84
2022/11/22 00:59:11;;;;;;;13.95;4.35;;;;;;;9.43;100.00;100425.25;10251579;28;96652;-84
2022/11/22 01:04:15;;;;;;;15.48;4.45;;;;;;;9.45;100.00;100422.63;10219264;28;97551;-84
2022/11/22 01:09:21;;;;;;;11.43;4.43;;;;;;;9.54;100.00;100422.41;10212029;28;98516;-84
2022/11/22 01:14:25;;;;;;;15.43;4.70;;;;;;;9.62;100.00;100440.47;10211992;28;96612;-85
2022/11/22 01:19:29;;;;;;;18.95;4.82;;;;;;;9.64;100.00;100436.06;10211157;28;96876;-85
2022/11/22 01:24:33;;;;;;;;;;;;;;;9.64;100.00;100449.97;10212352;28;96830;-85
2022/11/22 01:29:36;;;;;;;11.98;3.92;;;;;;;9.74;100.00;100450.59;10211150;28;96934;-85
2022/11/22 01:34:40;;;;;;;14.30;4.60;;;;;;;9.82;100.00;100447.81;10212017;28;96781;-85
2022/11/22 01:39:44;;;;;;;11.25;4.28;;;;;;;9.83;100.00;100446.91;10211473;28;97134;-85
2022/11/22 01:44:48;;;;;;;14.95;4.28;;;;;;;9.88;100.00;100447.63;10211062;28;96768;-85
2022/11/22 01:49:57;;;;;;;13.53;5.10;;;;;;;9.89;100.00;100438.91;10210665;28;96835;-85
2022/11/22 01:55:04;;;;;;;11.70;3.42;;;;;;;9.95;100.00;100440.50;10244113;28;96761;-84
2022/11/22 02:00:10;;;;;;;11.45;3.55;;;;;;;9.99;100.00;100416.88;10251176;28;96772;-85
2022/11/22 02:05:19;;;;;;;14.60;2.85;;;;;;;9.95;100.00;100412.63;10250621;28;96756;-84
2022/11/22 02:10:25;;;;;;;10.75;3.90;;;;;;;9.90;100.00;100418.88;10250576;28;96796;-84
2022/11/22 02:15:28;;;;;;;10.63;3.47;;;;;;;9.88;100.00;100399.78;10257622;28;96853;-85
2022/11/22 02:20:33;;;;;;;13.65;3.20;;;;;;;9.83;100.00;100390.28;10257928;28;96979;-85
2022/11/22 02:25:48;;;;;;;11.25;3.28;;;;;;;9.82;100.00;100375.53;10256898;28;97372;-84
2022/11/22 02:30:52;;;;;;;11.35;3.80;;;;;;;9.83;100.00;100364.16;10256824;28;96700;-85
2022/11/22 02:35:55;;;;;;;13.65;3.50;;;;;;;9.85;100.00;100375.47;10257103;28;96613;-84
2022/11/22 02:41:04;;;;;;;16.15;3.33;;;;;;;9.80;100.00;100393.00;10256862;28;96871;-84
2022/11/22 02:46:09;;;;;;;13.68;3.75;;;;;;;9.76;100.00;100393.97;10257217;28;96746;-84
2022/11/22 02:51:15;;;;;;;11.07;3.22;;;;;;;9.75;100.00;100402.72;10256532;28;96704;-84
2022/11/22 02:56:20;;;;;;;12.45;3.88;;;;;;;9.74;100.00;100397.53;10256603;28;96726;-84
2022/11/22 03:01:23;;;;;;;13.00;3.53;;;;;;;9.75;100.00;100409.66;10254657;28;97471;-84
2022/11/22 03:06:27;;;;;;;12.45;3.60;;;;;;;9.76;100.00;100393.97;10256477;28;96753;-84
2022/11/22 03:11:32;;;;;;;13.90;2.80;;;;;;;9.85;100.00;100379.81;10255892;28;96823;-84
2022/11/22 03:16:35;;;;;;;9.43;3.20;;;;;;;9.91;100.00;100370.97;10255536;28;96648;-85
2022/11/22 03:21:40;;;;;;;11.32;3.53;;;;;;;9.94;100.00;100355.19;10255130;28;96723;-85
2022/11/22 03:26:48;;;;;;;14.43;2.95;;;;;;;9.95;100.00;100328.19;10255569;28;96742;-84
2022/11/22 03:31:51;;;;;;;11.13;3.45;;;;;;;9.95;100.00;100333.41;10255410;28;96695;-85
2022/11/22 03:36:54;;;;;;;14.63;3.42;;;;;;;9.96;100.00;100324.69;10225199;28;97086;-85
2022/11/22 03:41:59;;;;;;;11.93;3.67;;;;;;;9.97;100.00;100316.78;10214553;28;96857;-85
2022/11/22 03:47:02;;;;;;;7.97;2.50;;;;;;;10.00;100.00;100326.28;10214409;28;96927;-85
2022/11/22 03:52:05;;;;;;;15.15;3.00;;;;;;;10.02;100.00;100309.66;10230264;28;96786;-85
2022/11/22 03:57:10;;;;;;;12.98;3.15;;;;;;;10.07;100.00;100300.84;10253959;28;96910;-85
2022/11/22 04:02:13;;;;;;;13.23;3.00;;;;;;;10.05;100.00;100299.13;10254552;28;96747;-85
2022/11/22 04:07:17;;;;;;;13.25;3.40;;;;;;;10.03;100.00;100295.72;10252272;28;96727;-85
2022/11/22 04:12:22;;;;;;;12.43;2.85;;;;;;;10.03;100.00;100273.97;10213804;28;96826;-84
2022/11/22 04:17:42;;;;;;;9.73;2.30;;;;;;;10.11;100.00;100292.84;10213820;28;96571;-85
2022/11/22 04:22:45;;;;;;;8.00;2.47;;;;;;;10.09;100.00;100292.06;10213716;28;96836;-84
2022/11/22 04:27:50;;;;;;;9.98;2.65;;;;;;;10.07;100.00;100278.19;10213539;28;96770;-85
2022/11/22 04:32:53;;;;;;;10.40;3.00;;;;;;;10.09;100.00;100268.53;10212105;28;96852;-85
2022/11/22 04:37:57;;;;;;;9.35;2.40;;;;;;;10.07;100.00;100265.13;10253218;28;97094;-84
2022/11/22 04:48:23;;;;;;;13.00;3.17;;;;;;;10.11;100.00;100271.13;10212739;28;96672;-85
2022/11/22 04:53:29;;;;;;;12.53;3.33;;;;;;;10.11;100.00;100244.97;10212783;28;96578;-84
2022/11/22 04:58:35;;;;;;;14.88;3.22;;;;;;;10.15;100.00;100239.63;10213251;28;97203;-85
2022/11/22 05:03:38;;;;;;;18.25;3.83;;;;;;;10.14;100.00;100224.84;10212431;28;96855;-85
2022/11/22 05:08:41;;;;;;;10.93;2.97;;;;;;;10.17;100.00;100224.75;10211862;28;96895;-85
2022/11/22 05:13:46;;;;;;;11.88;3.30;;;;;;;10.21;100.00;100234.19;10211991;28;96767;-84
2022/11/22 05:18:58;;;;;;;11.25;3.20;;;;;;;10.27;100.00;100245.38;10213284;28;96744;-85
2022/11/22 05:24:02;;;;;;;16.55;3.10;;;;;;;10.28;100.00;100258.38;10211498;28;96901;-84
2022/11/22 05:29:08;;;;;;;13.57;2.70;;;;;;;10.30;100.00;100255.72;10210802;28;96861;-85
2022/11/22 05:34:12;;;;;;;13.70;3.40;;;;;;;10.34;100.00;100257.34;10220920;28;96894;-86
2022/11/22 05:39:15;;;;;;;12.00;3.13;;;;;;;10.32;100.00;100253.91;10251638;28;96819;-85
2022/11/22 05:44:20;;;;;;;13.40;3.42;;;;;;;10.29;100.00;100225.25;10250945;28;97413;-85
2022/11/22 05:49:23;;;;;;;14.35;3.35;;;;;;;10.31;100.00;100210.41;10250273;28;96875;-85
2022/11/22 05:54:26;;;;;;;15.68;3.05;;;;;;;10.34;100.00;100200.72;10251250;28;96677;-85
2022/11/22 05:59:30;;;;;;;13.95;2.90;;;;;;;10.39;100.00;100206.66;10251052;28;96708;-85
2022/11/22 06:04:34;;;;;;;;;;;;;;;10.38;100.00;100218.00;10252013;28;96664;-85
2022/11/22 06:09:37;;;;;;;17.42;3.35;;;;;;;10.46;100.00;100225.63;10251039;28;96933;-85
2022/11/22 06:14:42;;;;;;;15.18;3.10;;;;;;;10.48;100.00;100244.72;10250662;28;96740;-85
2022/11/22 06:19:45;;;;;;;10.15;2.63;;;;;;;10.45;100.00;100259.66;10250742;28;96667;-85
2022/11/22 06:24:48;;;;;;;13.90;3.30;;;;;;;10.45;100.00;100229.13;10248799;28;96835;-85
2022/11/22 06:29:53;;;;;;;13.75;2.72;;;;;;;10.51;100.00;100215.88;10249517;28;96902;-85
2022/11/22 06:34:56;;;;;;;11.90;3.38;;;;;;;10.50;100.00;100200.22;10250318;28;96815;-85
2022/11/22 06:39:59;;;;;;;13.43;3.10;;;;;;;10.47;100.00;100197.69;10249810;28;96757;-85
2022/11/22 06:45:06;;;;;;;8.20;2.42;;;;;;;10.51;100.00;100208.03;10249680;28;96948;-85
2022/11/22 06:50:10;;;;;;;15.75;3.33;;;;;;;10.50;100.00;100231.59;10249761;28;96713;-85
2022/11/22 06:55:13;;;;;;;9.57;2.45;;;;;;;10.44;100.00;100211.72;10249217;28;96816;-85
2022/11/22 07:00:38;;;;;;;13.63;2.75;;;;;;;10.37;100.00;100163.16;10227204;28;97014;-84
2022/11/22 07:05:50;;;;;;;11.25;3.03;;;;;;;10.42;100.00;100195.22;10216191;28;96975;-84
2022/11/22 07:10:53;;;;;;;9.27;2.45;;;;;;;10.37;100.00;100176.22;10216069;28;96773;-84
2022/11/22 07:15:59;;;;;;;10.73;2.28;;;;;;;10.47;100.00;100195.94;10215181;28;96595;-85
2022/11/22 07:21:04;;;;;;;9.55;1.75;;;;;;;10.52;100.00;100225.41;10216122;28;96975;-86
2022/11/22 07:26:16;;;;;;;7.38;2.03;;;;;;;10.42;100.00;100198.69;10214918;28;96729;-84
2022/11/22 07:31:21;;;;;;;6.10;1.70;;;;;;;10.40;100.00;100194.44;10215147;28;96741;-84
2022/11/22 07:36:27;;;;;;;;;;;;;;;10.38;100.00;100211.91;10251616;28;96568;-83
2022/11/22 07:41:30;;;;;;;8.07;1.90;;;;;;;10.40;100.00;100218.78;10255704;28;96755;-84
2022/11/22 07:46:37;;;;;;;5.10;1.67;;;;;;;10.42;100.00;100208.28;10255007;28;96666;-85
2022/11/22 07:51:41;;;;;;;6.32;1.80;;;;;;;10.47;100.00;100209.00;10225998;28;96832;-84
2022/11/22 07:56:46;;;;;;;6.07;1.50;;;;;;;10.51;100.00;100221.09;10214503;28;96663;-85
2022/11/22 08:01:51;;;;;;;5.82;1.50;;;;;;;10.56;100.00;100219.16;10213931;28;98087;-84
2022/11/22 08:06:54;;;;;;;3.90;1.27;;;;;;;10.58;100.00;100206.91;10213630;28;97031;-84
2022/11/22 08:11:57;;;;;;;2.20;0.70;;;;;;;10.65;100.00;100201.47;10213570;28;96859;-84
2022/11/22 08:17:03;;;;;;;3.35;0.77;;;;;;;10.70;100.00;100191.69;10214103;28;96707;-85
2022/11/22 08:22:06;;;;;;;3.25;0.70;;;;;;;10.80;100.00;100193.09;10214177;28;96857;-85
2022/11/22 08:27:10;;;;;;;4.90;0.70;;;;;;;10.79;100.00;100191.38;10213307;28;96749;-84
2022/11/22 08:32:15;;;;;;;2.13;0.60;;;;;;;10.77;100.00;100183.63;10222839;28;96733;-83
2022/11/22 08:37:18;;;;;;;1.77;0.47;;;;;;;10.72;100.00;100201.22;10253165;28;96699;-84
2022/11/22 08:42:21;;;;;;;0.98;0.30;;;;;;;10.67;100.00;100195.28;10227041;28;96797;-84
2022/11/22 08:47:26;;;;;;;1.70;0.40;;;;;;;10.75;100.00;100205.47;10212876;28;96923;-84
2022/11/22 08:52:30;;;;;;;1.23;0.40;;;;;;;10.81;100.00;100207.91;10212333;28;96707;-84
2022/11/22 08:57:33;;;;;;;2.03;0.40;;;;;;;10.82;100.00;100204.38;10211784;28;97052;-84
2022/11/22 09:02:39;;;;;;;2.15;0.70;;;;;;;10.88;100.00;100193.72;10212794;28;96698;-84
2022/11/22 09:07:42;;;;;;;1.35;0.57;;;;;;;10.91;100.00;100184.88;10212430;28;97640;-84
2022/11/22 09:13:05;;;;;;;2.55;0.60;;;;;;;10.90;100.00;100186.66;10212376;28;96887;-84
2022/11/22 09:18:10;;;;;;;2.40;0.65;;;;;;;10.94;100.00;100169.94;10211415;28;96755;-85
2022/11/22 09:23:13;;;;;;;1.52;0.38;;;;;;;10.96;100.00;100169.88;10211040;28;96822;-84
2022/11/22 09:28:16;;;;;;;2.08;0.75;;;;;;;10.99;100.00;100154.09;10211323;28;96934;-84
2022/11/22 09:33:21;;;;;;;3.33;0.40;;;;;;;10.96;100.00;100141.97;10232013;28;96684;-84
2022/11/22 09:38:24;;;;;;;1.73;0.57;;;;;;;11.04;100.00;100128.59;10251981;28;96816;-85
2022/11/22 09:43:41;;;;;;;0.85;0.50;;;;;;;11.04;100.00;100122.53;10251352;28;96816;-84
2022/11/22 09:49:06;;;;;;;2.75;0.40;;;;;;;11.01;100.00;100117.41;10236757;28;96739;-85
2022/11/22 09:54:13;;;;;;;1.13;0.75;;;;;;;11.04;100.00;100086.75;10214919;28;96790;-85
2022/11/22 09:59:21;;;;;;;1.42;0.50;;;;;;;11.13;100.00;100089.00;10251037;28;96902;-85
2022/11/22 10:04:29;;;;;;;0.40;0.30;;;;;;;11.19;100.00;100077.47;10247187;28;96696;-85
2022/11/22 10:09:40;;;;;;;1.27;0.43;;;;;;;11.32;100.00;100060.41;10210555;28;96744;-84
2022/11/22 10:14:49;;;;;;;0.82;0.38;;;;;;;11.36;100.00;100054.16;10210216;28;97266;-83
2022/11/22 10:20:04;;;;;;;0.90;0.30;;;;;;;11.35;100.00;100028.91;10210405;28;96884;-84
2022/11/22 10:25:16;;;;;;;1.67;0.40;;;;;;;11.44;100.00;100021.59;10211496;28;96785;-83
2022/11/22 10:30:20;;;;;;;1.35;0.20;;;;;;;11.57;100.00;100006.25;10211923;28;96843;-84
2022/11/22 10:35:54;;;;;;;0.68;0.17;;;;;;;11.68;100.00;99975.25;10256323;28;96748;-83
2022/11/22 10:41:06;;;;;;;1.35;0.40;;;;;;;11.82;100.00;99969.44;10232998;28;96789;-83
2022/11/22 10:46:17;;;;;;;0.45;0.10;;;;;;;11.91;100.00;99963.81;10216220;28;96698;-83
2022/11/22 10:51:31;;;;;;;1.80;0.20;;;;;;;11.97;100.00;99947.84;10216671;28;96951;-84
2022/11/22 10:56:48;;;;;;;0.83;0.43;;;;;;;12.04;100.00;99933.53;10216173;28;96786;-85
2022/11/22 11:01:58;;;;;;;0.57;0.20;;;;;;;12.01;100.00;99914.47;10215868;28;96772;-83
2022/11/22 11:07:06;;;;;;;0.40;0.30;;;;;;;12.10;100.00;99899.19;10215998;28;96842;-83
2022/11/22 11:12:21;;;;;;;0.80;0.25;;;;;;;12.27;100.00;99892.38;10216476;28;97097;-84
2022/11/22 11:17:28;;;;;;;0.45;0.30;;;;;;;12.40;100.00;99875.13;10216550;28;96710;-84
2022/11/22 11:22:34;;;;;;;0.65;0.20;;;;;;;12.46;100.00;99867.00;10215929;28;96894;-83
2022/11/22 11:28:02;;;;;;;0.13;0.10;;;;;;;12.52;100.00;99870.28;10214837;28;96812;-84
2022/11/22 11:33:17;;;;;;;0.45;0.17;;;;;;;12.51;100.00;99843.19;10239863;28;96807;-84
2022/11/22 11:38:34;;;;;;;1.70;0.35;;;;;;;12.52;100.00;99834.41;10255623;28;96623;-83
2022/11/22 11:43:42;;;;;;;0.10;0.10;;;;;;;12.50;100.00;99847.56;10254863;28;96711;-83
2022/11/22 11:48:46;;;;;;;0.20;0.20;;;;;;;12.61;100.00;99843.59;10232624;28;97400;-83
2022/11/22 11:54:04;;;;;;;0.30;0.10;;;;;;;12.60;100.00;99848.00;10214694;28;96695;-83
2022/11/22 11:59:12;;;;;;;2.65;0.30;;;;;;;12.68;100.00;99881.75;10214361;28;96884;-82
2022/11/22 12:04:21;;;;;;;0.15;0.15;;;;;;;12.66;100.00;99878.34;10214843;28;97312;-84
2022/11/22 12:09:34;;;;;;;3.38;0.65;;;;;;;12.67;100.00;99874.81;10214878;28;96740;-83
2022/11/22 12:14:44;;;;;;;0.50;0.30;;;;;;;12.75;100.00;99804.47;10213894;28;96545;-83
2022/11/22 12:20:14;;;;;;;0.70;0.30;;;;;;;12.88;100.00;99796.84;10214401;28;96785;-83
2022/11/22 12:25:26;;;;;;;0.30;0.17;;;;;;;12.98;100.00;99773.66;10213035;28;96921;-83
2022/11/22 12:30:37;;;;;;;0.10;0.10;;;;;;;13.05;100.00;99777.69;10225664;28;96888;-84
2022/11/22 12:35:43;;;;;;;1.10;0.20;;;;;;;13.11;100.00;99779.97;10253443;28;96669;-83
2022/11/22 12:40:53;;;;;;;0.22;0.10;;;;;;;13.19;100.00;99800.63;10223050;28;96715;-84
2022/11/22 12:46:00;;;;;;;0.43;0.20;;;;;;;13.29;100.00;99782.59;10213069;28;96806;-84
2022/11/22 12:51:12;;;;;;;1.63;0.40;;;;;;;13.28;100.00;99770.41;10212696;28;96677;-85
2022/11/22 12:56:25;;;;;;;1.52;0.40;;;;;;;13.31;100.00;99770.25;10229137;28;96825;-83
2022/11/22 13:01:44;;;;;;;1.27;0.40;;;;;;;13.36;100.00;99760.34;10253009;28;96976;-84
2022/11/22 13:06:53;;;;;;;0.63;0.25;;;;;;;13.40;100.00;99756.66;10252693;28;96799;-84
2022/11/22 13:12:05;;;;;;;0.82;0.43;;;;;;;13.36;100.00;99741.97;10244038;28;96850;-84
2022/11/22 13:17:09;;;;;;;1.65;0.50;;;;;;;13.40;100.00;99717.25;10210998;28;96791;-84
2022/11/22 13:22:21;;;;;;;1.20;0.63;;;;;;;13.48;100.00;99725.59;10211825;28;96752;-83
2022/11/22 13:27:30;;;;;;;1.65;0.65;;;;;;;13.48;100.00;99738.72;10211427;28;96700;-83
2022/11/22 13:32:35;;;;;;;1.17;0.40;;;;;;;13.50;100.00;99729.00;10212104;28;97141;-84
2022/11/22 13:37:39;;;;;;;;;;;;;;;13.45;100.00;99728.38;10211827;28;96617;-84
2022/11/22 13:42:44;;;;;;;1.33;0.38;;;;;;;13.60;100.00;99729.34;10211658;28;96624;-82
2022/11/22 13:47:47;;;;;;;;;;;;;;;13.60;100.00;99724.06;10234079;28;96861;-84
2022/11/22 13:52:52;;;;;;;0.88;0.35;;;;;;;13.72;100.00;99756.75;10252452;28;96723;-82
2022/11/22 13:58:50;;;;;;;0.88;0.32;;;;;;;13.72;100.00;99759.38;10250724;28;97311;-83
2022/11/22 14:03:54;;;;;;;0.75;0.30;;;;;;;13.81;100.00;99778.13;10250135;28;96755;-83
2022/11/22 14:09:31;;;;;;;0.82;0.50;;;;;;;13.87;100.00;99748.03;10255774;28;97020;-82
2022/11/22 14:14:41;;;;;;;1.23;0.70;;;;;;;13.93;100.00;99768.75;10255303;28;96697;-83
2022/11/22 14:20:00;;;;;;;1.05;0.60;;;;;;;14.07;100.00;99782.91;10257118;28;96742;-82
2022/11/22 14:25:19;;;;;;;1.85;0.95;;;;;;;14.07;100.00;99770.63;10258012;28;96594;-82
2022/11/22 14:30:39;;;;;;;2.50;1.23;;;;;;;14.05;100.00;99761.97;10257077;28;97808;-81
2022/11/22 14:36:16;;;;;;;4.38;1.17;;;;;;;14.15;100.00;99783.34;10257508;28;96708;-82
2022/11/22 14:41:43;;;;;;;1.42;0.70;;;;;;;14.20;100.00;99791.84;10216864;28;96652;-84
2022/11/22 14:46:54;;;;;;;3.58;0.77;;;;;;;14.24;100.00;99782.00;10217511;28;97622;-84
2022/11/22 14:52:00;;;;;;;3.83;1.00;;;;;;;14.28;100.00;99794.91;10216361;28;97790;-82
2022/11/22 14:57:07;;;;;;;1.13;0.73;;;;;;;14.32;100.00;99790.38;10216928;28;96920;-82
2022/11/22 15:02:54;;;;;;;2.22;1.00;;;;;;;14.34;100.00;99799.84;10214640;28;96831;-83
2022/11/22 15:08:15;;;;;;;3.38;1.08;;;;;;;14.37;100.00;99804.13;10216031;28;97678;-83
2022/11/22 15:13:54;;;;;;;2.90;1.10;;;;;;;14.46;100.00;99821.16;10216069;28;96844;-83
2022/11/22 15:19:01;;;;;;;2.85;1.23;;;;;;;14.50;100.00;99804.28;10214852;28;96711;-83
2022/11/22 15:24:30;;;;;;;3.17;1.05;;;;;;;14.48;100.00;99800.88;10215758;28;96707;-85
2022/11/22 15:30:07;;;;;;;3.55;1.38;;;;;;;14.48;100.00;99817.50;10237788;28;97807;-82
2022/11/22 15:35:36;;;;;;;2.67;0.90;;;;;;;14.47;100.00;99793.91;10255368;28;96670;-83
2022/11/22 15:41:04;;;;;;;3.45;0.95;;;;;;;14.47;100.00;99805.31;10256190;28;97582;-83
2022/11/22 15:46:28;;;;;;;2.03;0.70;;;;;;;14.50;100.00;99794.59;10235296;28;96779;-83
2022/11/22 15:51:55;;;;;;;1.17;0.68;;;;;;;14.54;100.00;99808.41;10214493;28;96658;-84
2022/11/22 15:57:33;;;;;;;1.85;0.95;;;;;;;14.53;100.00;99798.84;10236298;28;97191;-83
2022/11/22 16:02:47;;;;;;;1.85;0.90;;;;;;;14.52;100.00;99802.41;10241713;28;96975;-84
2022/11/22 16:07:53;;;;;;;1.30;0.90;;;;;;;14.51;100.00;99805.97;10214234;28;96685;-82
2022/11/22 16:12:56;;;;;;;2.15;1.00;;;;;;;14.54;100.00;99818.94;10213908;28;96849;-83
2022/11/22 16:18:07;;;;;;;5.43;1.23;;;;;;;14.60;100.00;99821.25;10214078;28;96545;-83
2022/11/22 16:23:18;;;;;;;2.30;1.02;;;;;;;14.57;100.00;99795.09;10213477;28;96768;-82
2022/11/22 16:28:33;;;;;;;3.10;1.13;;;;;;;14.62;100.00;99814.13;10224136;28;96821;-83
2022/11/22 16:33:37;;;;;;;3.38;1.48;;;;;;;14.61;100.00;99811.56;10254649;28;96701;-83
2022/11/22 16:38:42;;;;;;;2.22;1.20;;;;;;;14.61;100.00;99807.19;10223876;28;96566;-83
2022/11/22 16:43:48;;;;;;;3.05;1.42;;;;;;;14.61;100.00;99808.94;10212910;28;96753;-85
2022/11/22 16:48:51;;;;;;;3.75;1.42;;;;;;;14.63;100.00;99830.78;10211576;28;96782;-84
2022/11/22 16:53:59;;;;;;;4.65;1.30;;;;;;;14.61;100.00;99844.00;10213211;28;96865;-84
2022/11/22 16:59:02;;;;;;;3.47;1.20;;;;;;;14.60;100.00;99852.81;10212351;28;96840;-83
2022/11/22 17:04:21;;;;;;;2.00;1.02;;;;;;;14.61;100.00;99853.66;10212393;28;96608;-84
2022/11/22 17:09:26;;;;;;;2.70;1.10;;;;;;;14.63;100.00;99857.09;10212543;28;97709;-83
2022/11/22 17:14:30;;;;;;;1.23;1.00;;;;;;;14.67;100.00;99854.19;10212356;28;97158;-83
2022/11/22 17:19:34;;;;;;;2.53;0.98;;;;;;;14.64;100.00;99854.34;10211775;28;96767;-83
2022/11/22 17:24:57;;;;;;;1.83;1.00;;;;;;;14.64;100.00;99869.28;10212818;28;96780;-84
2022/11/22 17:30:00;;;;;;;5.45;1.90;;;;;;;14.64;100.00;99866.66;10235779;28;96944;-82
2022/11/22 17:35:04;;;;;;;5.82;1.63;;;;;;;14.64;100.00;99879.81;10251917;28;96638;-84
2022/11/22 17:40:12;;;;;;;10.27;2.33;;;;;;;14.59;100.00;99864.28;10250286;28;96796;-83
2022/11/22 17:45:15;;;;;;;6.22;1.95;;;;;;;14.60;100.00;99868.63;10233936;28;96937;-84
2022/11/22 17:50:18;;;;;;;8.35;2.50;;;;;;;14.63;100.00;99873.72;10211164;28;96706;-83
2022/11/22 17:55:23;;;;;;;7.47;2.30;;;;;;;14.65;100.00;99886.78;10210762;28;96606;-82
2022/11/22 18:00:44;;;;;;;12.25;3.50;;;;;;;14.63;100.00;99878.97;10211392;28;97005;-83
2022/11/22 18:05:47;;;;;;;17.33;4.80;;;;;;;14.66;100.00;99872.69;10210703;28;96766;-84
2022/11/22 18:10:54;;;;;;;25.90;6.07;;;;;;;14.65;100.00;99886.78;10210407;28;96715;-84
2022/11/22 18:16:00;;;;;;;35.42;7.65;;;;;;;14.68;100.00;99905.03;10211220;28;96801;-84
2022/11/22 18:21:07;;;;;;;34.65;7.82;;;;;;;14.68;100.00;99907.66;10210924;28;96655;-83
2022/11/22 18:26:18;;;;;;;38.67;8.30;;;;;;;14.69;100.00;99902.31;10210474;28;96914;-84
2022/11/22 18:31:41;;;;;;;38.15;8.38;;;;;;;14.73;100.00;99909.13;10246000;28;100129;-84
2022/11/22 18:36:54;;;;;;;40.38;7.60;;;;;;;14.75;100.00;99894.09;10226539;28;96721;-83
2022/11/22 18:42:07;;;;;;;35.72;7.88;;;;;;;14.72;100.00;99894.25;10209773;28;96732;-84
2022/11/22 18:47:11;;;;;;;39.28;9.45;;;;;;;14.75;100.00;99907.25;10209690;28;96708;-83
2022/11/22 18:52:14;;;;;;;36.53;7.50;;;;;;;14.79;100.00;99914.97;10210157;28;96762;-85
2022/11/22 18:57:21;;;;;;;36.22;8.13;;;;;;;14.79;100.00;99920.25;10235752;28;96746;-84
2022/11/22 19:02:26;;;;;;;;;;;;;;;14.75;100.00;99923.03;10257608;28;97011;-84
2022/11/22 19:07:29;;;;;;;33.10;7.77;;;;;;;14.84;100.00;99898.00;10257523;28;96707;-83
2022/11/22 19:12:36;;;;;;;36.70;7.07;;;;;;;14.80;100.00;99899.13;10219345;28;96842;-83
2022/11/22 19:17:40;;;;;;;24.60;6.63;;;;;;;14.83;100.00;99896.28;10215783;28;96728;-84
2022/11/22 19:22:43;;;;;;;28.15;6.60;;;;;;;14.83;100.00;99893.66;10214637;28;96563;-83
2022/11/22 19:27:48;;;;;;;30.92;6.32;;;;;;;14.83;100.00;99900.72;10222241;28;96867;-84
2022/11/22 19:32:52;;;;;;;27.58;6.57;;;;;;;14.80;100.00;99906.13;10255773;28;96665;-84
2022/11/22 19:37:55;;;;;;;31.40;7.75;;;;;;;14.82;100.00;99917.44;10255820;28;96602;-84
2022/11/22 19:43:00;;;;;;;25.20;6.28;;;;;;;14.82;100.00;99909.53;10247852;28;96784;-84
2022/11/22 19:48:03;;;;;;;22.73;6.28;;;;;;;14.86;100.00;99890.03;10215056;28;97009;-84
2022/11/22 19:53:07;;;;;;;26.70;6.55;;;;;;;14.82;100.00;99888.47;10214181;28;96836;-84
2022/11/22 19:58:11;;;;;;;33.83;7.32;;;;;;;14.85;100.00;99888.31;10214981;28;96792;-84
2022/11/22 20:03:15;;;;;;;26.52;5.95;;;;;;;14.84;100.00;99891.91;10214430;28;96658;-86
2022/11/22 20:08:18;;;;;;;24.27;5.45;;;;;;;14.86;100.00;99868.97;10214357;28;96837;-85
2022/11/22 20:13:23;;;;;;;15.10;4.72;;;;;;;14.87;100.00;99875.91;10212829;28;98211;-84
2022/11/22 20:18:26;;;;;;;19.75;5.03;;;;;;;14.94;100.00;99866.75;10214414;28;97446;-85
2022/11/22 20:23:30;;;;;;;18.58;4.82;;;;;;;14.93;100.00;99870.31;10213606;28;96712;-85
2022/11/22 20:28:37;;;;;;;17.25;4.35;;;;;;;14.87;100.00;99870.63;10226074;28;97051;-83
2022/11/22 20:33:42;;;;;;;18.70;4.97;;;;;;;14.95;100.00;99873.69;10248059;28;96805;-84
2022/11/22 20:38:47;;;;;;;18.48;4.93;;;;;;;14.92;100.00;99868.59;10213452;28;96691;-84
2022/11/22 20:43:54;;;;;;;19.70;5.28;;;;;;;14.96;100.00;99859.63;10212777;28;96844;-84
2022/11/22 20:48:58;;;;;;;20.20;5.28;;;;;;;14.95;100.00;99868.44;10213593;28;96778;-84
2022/11/22 20:54:04;;;;;;;19.02;5.40;;;;;;;14.96;100.00;99870.16;10213522;28;96875;-84
2022/11/22 20:59:09;;;;;;;18.70;5.70;;;;;;;14.96;100.00;99870.16;10212506;28;96819;-83
2022/11/22 21:04:17;;;;;;;24.52;6.38;;;;;;;14.98;100.00;99846.38;10211677;28;97751;-84
2022/11/22 21:09:20;;;;;;;18.75;5.60;;;;;;;15.00;100.00;99861.13;10212777;28;96711;-85
2022/11/22 21:14:25;;;;;;;23.33;6.05;;;;;;;14.99;100.00;99864.72;10211847;28;96797;-84
2022/11/22 21:19:28;;;;;;;27.08;6.00;;;;;;;14.99;100.00;99872.63;10211335;28;96810;-83
2022/11/22 21:24:31;;;;;;;23.92;6.50;;;;;;;14.98;100.00;99873.53;10212504;28;96785;-83
2022/11/22 21:29:36;;;;;;;26.45;6.57;;;;;;;15.02;100.00;99880.31;10232109;28;96875;-84
2022/11/22 21:34:39;;;;;;;26.10;5.32;;;;;;;15.06;100.00;99876.59;10252058;28;96799;-84
2022/11/22 21:39:42;;;;;;;27.23;6.70;;;;;;;15.02;100.00;99885.56;10252545;28;96822;-85
2022/11/22 21:44:47;;;;;;;27.75;6.43;;;;;;;15.06;100.00;99875.72;10221006;28;96696;-85
2022/11/22 21:49:50;;;;;;;19.05;5.30;;;;;;;15.02;100.00;99872.41;10211041;28;97142;-84
2022/11/22 21:54:53;;;;;;;23.48;5.65;;;;;;;15.04;100.00;99867.91;10209834;28;96707;-85
2022/11/22 21:59:58;;;;;;;17.35;4.43;;;;;;;15.02;100.00;99863.69;10231858;28;97282;-84
2022/11/22 22:05:01;;;;;;;18.55;4.35;;;;;;;14.97;100.00;99870.97;10210901;28;96840;-84
2022/11/22 22:10:05;;;;;;;20.67;4.38;;;;;;;14.97;100.00;99882.34;10210784;28;96568;-84
2022/11/22 22:15:12;;;;;;;16.58;4.10;;;;;;;14.96;100.00;99885.94;10210906;28;96801;-84
2022/11/22 22:20:15;;;;;;;15.02;3.42;;;;;;;14.96;100.00;99867.50;10210563;28;96542;-84
2022/11/22 22:25:18;;;;;;;15.93;4.70;;;;;;;14.99;100.00;99859.44;10210347;28;96883;-84
2022/11/22 22:30:23;;;;;;;21.70;4.90;;;;;;;14.98;100.00;99857.75;10243943;28;96759;-85
2022/11/22 22:35:26;;;;;;;;;;;;;;;14.92;100.00;99852.81;10230018;28;96724;-85
2022/11/22 22:40:29;;;;;;;19.35;3.97;;;;;;;14.92;100.00;99847.53;10217191;28;96828;-84
2022/11/22 22:45:36;;;;;;;14.73;3.00;;;;;;;14.90;100.00;99859.94;10215955;28;96697;-84
2022/11/22 22:50:39;;;;;;;17.17;3.90;;;;;;;14.90;100.00;99859.94;10217241;28;96796;-83
2022/11/22 22:55:42;;;;;;;12.98;3.53;;;;;;;14.85;100.00;99861.97;10216090;28;98579;-84
2022/11/22 23:00:47;;;;;;;9.95;3.03;;;;;;;14.86;100.00;99868.97;10216277;28;96545;-84
2022/11/22 23:05:50;;;;;;;9.05;2.47;;;;;;;14.89;100.00;99864.38;10216458;28;97086;-83
2022/11/22 23:10:53;;;;;;;9.45;2.53;;;;;;;14.87;100.00;99850.44;10216609;28;96674;-84
2022/11/22 23:16:00;;;;;;;5.95;1.65;;;;;;;14.89;100.00;99853.00;10215796;28;96787;-84
2022/11/22 23:21:04;;;;;;;3.38;1.20;;;;;;;14.92;100.00;99847.53;10217013;28;96709;-83
2022/11/22 23:26:10;;;;;;;2.08;0.70;;;;;;;14.91;100.00;99861.66;10215994;28;96817;-83
2022/11/22 23:31:16;;;;;;;2.17;0.77;;;;;;;14.89;100.00;99859.09;10249420;28;97694;-85